createdAt,value
2019-03-19T00:01:21.846Z,13.23
2019-03-19T00:03:52.288Z,14.57
2019-03-19T00:06:22.510Z,14.83
2019-03-19T00:08:52.828Z,13.67
2019-03-19T00:11:23.476Z,14.83
2019-03-19T00:13:53.579Z,14.27
2019-03-19T00:16:25.147Z,14.77
2019-03-19T00:18:56.998Z,11.47
2019-03-19T00:21:27.955Z,14.17
2019-03-19T00:23:59.149Z,14.27
2019-03-19T00:26:29.913Z,15.57
2019-03-19T00:29:00.440Z,10.30
2019-03-19T00:31:31.487Z,8.37
2019-03-19T00:34:01.906Z,15.03
2019-03-19T00:36:31.709Z,13.50
2019-03-19T00:39:01.831Z,13.87
2019-03-19T00:41:34.529Z,16.10
2019-03-19T00:44:04.727Z,13.67
2019-03-19T00:46:34.737Z,15.07
2019-03-19T00:49:06.745Z,18.13
2019-03-19T00:51:37.258Z,11.87
2019-03-19T00:54:06.836Z,14.37
2019-03-19T00:56:36.850Z,11.73
2019-03-19T00:59:07.121Z,11.23
2019-03-19T01:01:38.862Z,9.83
2019-03-19T01:04:09.360Z,7.97
2019-03-19T01:06:39.382Z,10.43
2019-03-19T01:09:09.819Z,15.97
2019-03-19T01:11:41.468Z,18.67
2019-03-19T01:14:11.908Z,14.47
2019-03-19T01:16:42.000Z,16.50
2019-03-19T01:19:12.863Z,11.30
2019-03-19T01:21:42.649Z,10.97
2019-03-19T01:24:12.374Z,17.37
2019-03-19T01:26:42.172Z,11.60
2019-03-19T01:29:12.299Z,13.23
2019-03-19T01:31:42.589Z,12.63
2019-03-19T01:34:12.733Z,10.00
2019-03-19T01:36:43.370Z,14.50
2019-03-19T01:39:13.582Z,11.17
2019-03-19T01:41:43.673Z,11.87
2019-03-19T01:44:13.938Z,11.97
2019-03-19T01:46:44.090Z,9.57
2019-03-19T01:49:14.293Z,11.33
2019-03-19T01:51:44.485Z,9.37
2019-03-19T01:54:14.708Z,9.67
2019-03-19T01:56:45.143Z,13.33
2019-03-19T01:59:15.893Z,13.67
2019-03-19T02:01:46.928Z,11.83
2019-03-19T02:04:17.758Z,13.43
2019-03-19T02:06:48.907Z,7.43
2019-03-19T02:09:19.944Z,8.87
2019-03-19T02:11:50.771Z,10.43
2019-03-19T02:14:20.985Z,11.47
2019-03-19T02:16:51.513Z,11.33
2019-03-19T02:19:21.529Z,10.60
2019-03-19T02:21:51.577Z,9.07
2019-03-19T02:24:21.354Z,12.63
2019-03-19T02:26:51.174Z,6.60
2019-03-19T02:29:20.988Z,9.77
2019-03-19T02:31:51.839Z,12.03
2019-03-19T02:34:21.538Z,14.93
2019-03-19T02:36:51.875Z,8.57
2019-03-19T02:39:21.779Z,12.27
2019-03-19T02:41:51.780Z,8.37
2019-03-19T02:44:21.487Z,7.73
2019-03-19T02:46:51.943Z,8.60
2019-03-19T02:49:22.156Z,13.67
2019-03-19T02:51:52.253Z,12.43
2019-03-19T02:54:22.487Z,11.57
2019-03-19T02:56:52.618Z,10.10
2019-03-19T02:59:22.508Z,13.23
2019-03-19T03:01:52.522Z,9.43
2019-03-19T03:04:23.079Z,11.37
2019-03-19T03:06:52.771Z,8.77
2019-03-19T03:09:32.934Z,12.13
2019-03-19T03:12:03.351Z,10.33
2019-03-19T03:14:34.094Z,11.57
2019-03-19T03:17:04.708Z,12.97
2019-03-19T03:19:35.037Z,9.73
2019-03-19T03:22:04.840Z,14.67
2019-03-19T03:24:35.078Z,10.77
2019-03-19T03:27:05.507Z,9.77
2019-03-19T03:29:35.712Z,10.07
2019-03-19T03:32:05.727Z,11.20
2019-03-19T03:34:36.080Z,10.47
2019-03-19T03:37:06.067Z,12.33
2019-03-19T03:39:35.887Z,9.60
2019-03-19T03:42:06.129Z,12.43
2019-03-19T03:44:36.335Z,14.37
2019-03-19T03:47:06.350Z,13.97
2019-03-19T03:49:36.562Z,10.03
2019-03-19T03:52:06.474Z,14.03
2019-03-19T03:54:36.405Z,10.97
2019-03-19T03:57:06.528Z,15.80
2019-03-19T03:59:36.837Z,13.23
2019-03-19T04:02:07.279Z,15.43
2019-03-19T04:04:37.586Z,11.43
2019-03-19T04:07:07.616Z,9.47
2019-03-19T04:09:39.037Z,15.27
2019-03-19T04:12:10.499Z,9.63
2019-03-19T04:21:17.145Z,14.00
2019-03-19T04:23:46.818Z,11.37
2019-03-19T04:26:16.937Z,13.57
2019-03-19T04:28:51.367Z,15.47
2019-03-19T04:31:21.789Z,12.07
2019-03-19T04:33:51.918Z,14.37
2019-03-19T04:36:22.959Z,10.33
2019-03-19T04:38:53.387Z,11.73
2019-03-19T04:41:23.804Z,13.30
2019-03-19T04:43:54.132Z,13.10
2019-03-19T04:46:32.024Z,18.17
2019-03-19T04:49:02.759Z,18.80
2019-03-19T04:51:37.071Z,14.07
2019-03-19T05:20:43.518Z,16.10
2019-03-19T05:23:13.843Z,16.93
2019-03-19T05:25:46.826Z,16.60
2019-03-19T05:28:17.963Z,13.70
2019-03-19T05:30:50.751Z,19.27
2019-03-19T05:33:21.064Z,9.30
2019-03-19T05:35:52.824Z,15.00
2019-03-19T05:38:22.739Z,17.10
2019-03-19T05:40:53.061Z,10.20
2019-03-19T05:43:23.175Z,11.40
2019-03-19T05:45:53.096Z,16.53
2019-03-19T05:48:26.898Z,10.80
2019-03-19T05:50:57.525Z,13.80
2019-03-19T05:54:03.157Z,14.20
2019-03-19T05:56:43.543Z,14.27
2019-03-19T05:59:13.765Z,14.83
2019-03-19T06:01:47.986Z,15.23
2019-03-19T06:04:24.096Z,15.13
2019-03-19T06:10:20.187Z,20.07
2019-03-19T06:12:51.763Z,13.63
2019-03-19T06:15:22.270Z,16.77
2019-03-19T06:17:53.151Z,18.00
2019-03-19T06:20:25.885Z,19.33
2019-03-19T06:22:56.422Z,22.47
2019-03-19T06:25:27.164Z,15.80
2019-03-19T06:28:01.038Z,16.43
2019-03-19T06:30:43.466Z,17.90
2019-03-19T06:33:29.464Z,16.97
2019-03-19T06:36:20.145Z,21.80
2019-03-19T06:45:25.854Z,15.90
2019-03-19T06:49:35.524Z,23.97
2019-03-19T06:50:44.469Z,23.63
2019-03-19T06:53:10.642Z,22.93
2019-03-19T06:55:56.336Z,22.37
2019-03-19T07:17:03.864Z,20.80
2019-03-19T07:31:44.786Z,19.07
2019-03-19T08:10:07.465Z,30.40
2019-03-19T08:12:08.704Z,17.70
2019-03-19T08:14:42.014Z,15.30
2019-03-19T08:17:12.523Z,23.80
2019-03-19T08:19:43.796Z,22.77
2019-03-19T08:22:14.504Z,15.30
2019-03-19T08:24:44.834Z,13.50
2019-03-19T08:27:15.355Z,28.17
2019-03-19T08:29:45.485Z,17.47
2019-03-19T08:32:15.904Z,15.80
2019-03-19T08:34:46.437Z,10.57
2019-03-19T08:37:16.444Z,11.77
2019-03-19T08:39:46.465Z,13.20
2019-03-19T08:42:17.510Z,12.73
2019-03-19T08:44:48.647Z,15.97
2019-03-19T08:47:18.765Z,11.73
2019-03-19T08:49:51.558Z,14.33
2019-03-19T08:52:22.721Z,12.90
2019-03-19T08:54:53.849Z,14.20
2019-03-19T08:57:25.001Z,12.40
2019-03-19T08:59:58.520Z,11.47
2019-03-19T09:03:22.409Z,6.80
2019-03-19T09:05:59.961Z,9.20
2019-03-19T09:08:30.913Z,6.97
2019-03-19T09:21:16.849Z,7.47
2019-03-19T09:29:52.170Z,7.70
2019-03-19T09:39:16.249Z,13.17
2019-03-19T09:41:51.089Z,8.80
2019-03-19T09:44:30.563Z,9.53
2019-03-19T09:47:06.474Z,9.70
2019-03-19T09:49:37.533Z,13.03
2019-03-19T09:52:07.840Z,9.57
2019-03-19T09:54:43.802Z,12.20
2019-03-19T09:57:18.442Z,9.83
2019-03-19T09:59:54.681Z,11.03
2019-03-19T10:02:28.650Z,12.63
2019-03-19T10:04:58.930Z,9.70
2019-03-19T10:07:29.854Z,9.63
2019-03-19T10:10:00.139Z,10.60
2019-03-19T10:12:36.044Z,8.77
2019-03-19T10:18:33.721Z,11.77
2019-03-19T10:21:04.561Z,7.53
2019-03-19T10:23:34.977Z,10.50
2019-03-19T10:26:08.481Z,10.67
2019-03-19T10:28:38.289Z,14.77
2019-03-19T10:31:12.689Z,8.50
2019-03-19T10:33:45.284Z,8.23
2019-03-19T10:36:21.137Z,10.43
2019-03-19T10:38:52.265Z,8.57
2019-03-19T10:41:24.681Z,16.03
2019-03-19T10:44:32.849Z,12.97
2019-03-19T10:47:03.689Z,9.57
2019-03-19T10:49:40.369Z,10.43
2019-03-19T10:52:12.249Z,7.40
2019-03-19T10:54:46.881Z,10.23
2019-03-19T10:57:17.891Z,9.07
2019-03-19T10:59:50.692Z,10.00
2019-03-19T11:02:21.441Z,14.03
2019-03-19T11:04:52.161Z,8.83
2019-03-19T11:10:19.001Z,15.40
2019-03-19T11:12:56.129Z,11.80
2019-03-19T11:15:26.808Z,8.13
2019-03-19T11:17:57.881Z,11.47
2019-03-19T11:20:30.041Z,11.20
2019-03-19T11:23:00.441Z,12.43
2019-03-19T11:35:38.929Z,19.77
2019-03-19T11:38:19.489Z,13.57
2019-03-19T11:40:54.121Z,11.30
2019-03-19T11:43:25.250Z,13.60
2019-03-19T11:46:40.356Z,7.50
2019-03-19T11:49:38.322Z,10.07
2019-03-19T11:52:13.081Z,16.40
2019-03-19T11:58:15.160Z,11.60
2019-03-19T12:01:28.180Z,13.10
2019-03-19T12:13:28.161Z,13.33
2019-03-19T12:16:52.442Z,14.60
2019-03-19T12:53:58.681Z,16.33
2019-03-19T12:59:36.936Z,11.97
2019-03-19T13:02:49.969Z,9.27
2019-03-19T13:05:36.759Z,13.43
2019-03-19T13:08:09.321Z,10.80
2019-03-19T13:11:06.808Z,13.17
2019-03-19T13:17:04.984Z,6.57
2019-03-19T13:20:16.778Z,12.63
2019-03-19T13:23:13.423Z,12.37
2019-03-19T13:29:33.135Z,11.07
2019-03-19T13:32:28.289Z,10.27
2019-03-19T13:34:58.968Z,12.40
2019-03-19T13:37:37.489Z,7.93
2019-03-19T13:40:11.812Z,10.30
2019-03-19T13:42:55.384Z,7.03
2019-03-19T13:45:54.545Z,6.97
2019-03-19T13:48:27.528Z,7.87
2019-03-19T13:51:07.488Z,10.97
2019-03-19T13:53:41.984Z,13.27
2019-03-19T13:56:51.447Z,8.03
2019-03-19T13:59:23.104Z,9.40
2019-03-19T14:01:57.087Z,16.70
2019-03-19T14:04:35.528Z,10.07
2019-03-19T14:07:25.248Z,13.03
2019-03-19T14:10:26.970Z,7.47
2019-03-19T14:12:57.464Z,12.60
2019-03-19T14:15:34.970Z,8.53
2019-03-19T14:18:05.928Z,7.20
2019-03-19T14:20:46.056Z,16.83
2019-03-19T14:23:32.576Z,9.87
2019-03-19T14:26:09.848Z,10.90
2019-03-19T14:28:40.811Z,13.90
2019-03-19T14:31:11.741Z,8.40
2019-03-19T14:33:42.687Z,13.60
2019-03-19T14:36:14.938Z,19.37
2019-03-19T14:38:47.471Z,8.63
2019-03-19T14:41:18.944Z,8.87
2019-03-19T14:43:50.528Z,10.83
2019-03-19T14:46:21.768Z,9.40
2019-03-19T14:48:53.129Z,8.90
2019-03-19T14:51:31.448Z,9.40
2019-03-19T14:54:01.888Z,16.37
2019-03-19T14:56:32.888Z,11.40
2019-03-19T14:59:12.977Z,8.30
2019-03-19T15:01:49.528Z,19.53
2019-03-19T15:04:19.928Z,7.67
2019-03-19T15:09:50.062Z,17.43
2019-03-19T15:12:20.702Z,14.03
2019-03-19T15:14:50.934Z,14.13
2019-03-19T15:17:21.662Z,14.13
2019-03-19T15:19:52.304Z,11.80
2019-03-19T15:22:32.146Z,15.93
2019-03-19T15:24:55.915Z,18.80
2019-03-19T15:27:26.758Z,12.73
2019-03-19T15:29:57.800Z,11.47
2019-03-19T15:32:28.525Z,10.87
2019-03-19T15:34:59.039Z,8.87
2019-03-19T15:40:33.916Z,13.83
2019-03-19T15:43:04.961Z,18.07
2019-03-19T15:45:35.877Z,15.20
2019-03-19T15:48:06.485Z,12.60
2019-03-19T15:50:40.917Z,10.00
2019-03-19T15:53:11.566Z,11.03
2019-03-19T15:55:42.406Z,9.23
2019-03-19T15:58:13.030Z,29.37
2019-03-19T16:00:48.153Z,15.30
2019-03-19T16:03:15.937Z,16.63
2019-03-19T16:05:51.455Z,19.67
2019-03-19T16:08:22.500Z,18.53
2019-03-19T16:10:53.532Z,19.83
2019-03-19T16:13:24.725Z,24.13
2019-03-19T16:15:55.943Z,28.27
2019-03-19T16:18:26.891Z,22.07
2019-03-19T16:20:57.417Z,24.10
2019-03-19T16:23:28.349Z,36.67
2019-03-19T16:25:59.585Z,46.07
2019-03-19T16:28:29.906Z,31.63
2019-03-19T16:30:59.936Z,30.13
2019-03-19T16:33:30.344Z,22.47
2019-03-19T16:36:00.984Z,32.20
2019-03-19T16:38:33.598Z,26.43
2019-03-19T16:41:08.991Z,25.33
2019-03-19T16:43:39.858Z,23.30
2019-03-19T16:46:11.890Z,24.73
2019-03-19T16:48:46.850Z,26.60
2019-03-19T16:51:42.664Z,25.90
2019-03-19T16:54:41.048Z,21.67
2019-03-19T16:57:14.176Z,28.50
2019-03-19T17:00:16.830Z,27.57
2019-03-19T17:03:39.674Z,33.83
2019-03-19T17:06:14.082Z,34.87
2019-03-19T17:08:45.938Z,35.53
2019-03-19T17:11:22.130Z,28.57
2019-03-19T17:13:56.194Z,47.87
2019-03-19T17:16:28.986Z,46.60
2019-03-19T17:19:00.538Z,51.37
2019-03-19T17:21:35.795Z,54.83
2019-03-19T17:24:11.202Z,42.17
2019-03-19T17:26:51.434Z,43.37
2019-03-19T17:29:48.642Z,51.67
2019-03-19T17:46:53.994Z,37.80
2019-03-19T17:49:36.803Z,36.73
2019-03-19T17:52:09.564Z,33.63
2019-03-19T17:54:44.002Z,33.67
2019-03-19T17:57:16.162Z,36.33
2019-03-19T17:59:50.677Z,37.57
2019-03-19T18:02:24.232Z,33.03
2019-03-19T18:04:53.797Z,31.63
2019-03-19T18:07:25.138Z,31.83
2019-03-19T18:09:57.902Z,48.63
2019-03-19T18:12:31.818Z,48.43
2019-03-19T18:15:08.138Z,55.53
2019-03-19T18:17:38.420Z,47.97
2019-03-19T18:20:10.993Z,52.50
2019-03-19T18:22:42.742Z,53.20
2019-03-19T18:25:17.272Z,44.23
2019-03-19T18:27:47.582Z,47.00
2019-03-19T18:30:20.761Z,47.87
2019-03-19T18:32:53.134Z,50.63
2019-03-19T18:35:26.925Z,43.73
2019-03-19T18:38:01.570Z,44.07
2019-03-19T18:40:38.756Z,51.17
2019-03-19T18:43:15.543Z,55.20
2019-03-19T18:45:48.942Z,72.17
2019-03-19T18:48:22.743Z,76.70
2019-03-19T18:50:58.475Z,66.63
2019-03-19T18:53:34.534Z,80.63
2019-03-19T18:56:09.157Z,76.97
2019-03-19T18:58:40.029Z,75.80
2019-03-19T19:01:12.266Z,73.13
2019-03-19T19:03:43.727Z,67.97
2019-03-19T19:06:16.846Z,75.63
2019-03-19T19:08:53.063Z,71.33
2019-03-19T19:11:25.256Z,67.60
2019-03-19T19:13:57.115Z,78.60
2019-03-19T19:16:29.997Z,72.10
2019-03-19T19:19:05.737Z,75.33
2019-03-19T19:21:39.019Z,67.23
2019-03-19T19:24:10.389Z,78.90
2019-03-19T19:26:44.594Z,66.30
2019-03-19T19:29:22.709Z,83.90
2019-03-19T19:31:56.157Z,79.10
2019-03-19T19:34:31.839Z,110.90
2019-03-19T19:37:12.710Z,124.43
2019-03-19T19:39:49.488Z,141.73
2019-03-19T19:42:20.208Z,155.47
2019-03-19T19:44:50.849Z,146.53
2019-03-19T19:47:21.377Z,181.37
2019-03-19T19:50:11.787Z,176.67
2019-03-19T19:52:44.972Z,177.27
2019-03-19T19:55:20.124Z,151.63
2019-03-19T19:57:51.543Z,157.03
2019-03-19T20:00:25.139Z,157.17
2019-03-19T20:02:55.799Z,150.23
2019-03-19T20:05:30.423Z,156.23
2019-03-19T20:08:00.939Z,154.63
2019-03-19T20:10:31.459Z,155.47
2019-03-19T20:13:16.027Z,175.63
2019-03-19T20:15:47.148Z,179.17
2019-03-19T20:18:36.116Z,155.50
2019-03-19T20:21:06.856Z,138.40
2019-03-19T20:23:38.828Z,146.30
2019-03-19T20:26:11.798Z,164.97
2019-03-19T20:28:42.959Z,151.83
2019-03-19T20:31:17.479Z,136.63
2019-03-19T20:33:54.038Z,161.80
2019-03-19T20:36:32.880Z,141.57
2019-03-19T20:39:15.378Z,154.63
2019-03-19T20:41:45.956Z,148.50
2019-03-19T20:44:23.506Z,152.30
2019-03-19T20:46:56.086Z,160.53
2019-03-19T20:49:27.826Z,157.30
2019-03-19T20:52:01.526Z,173.07
2019-03-19T20:54:31.858Z,176.67
2019-03-19T20:57:04.025Z,164.63
2019-03-19T20:59:37.847Z,168.53
2019-03-19T21:02:11.736Z,156.60
2019-03-19T21:04:45.346Z,159.17
2019-03-19T21:07:16.676Z,159.03
2019-03-19T21:09:47.326Z,165.47
2019-03-19T21:12:18.877Z,164.00
2019-03-19T21:14:49.510Z,166.80
2019-03-19T21:17:20.851Z,155.53
2019-03-19T21:19:51.285Z,160.43
2019-03-19T21:22:21.179Z,150.27
2019-03-19T21:24:51.816Z,140.57
2019-03-19T21:27:21.825Z,132.70
2019-03-19T21:29:53.084Z,148.73
2019-03-19T21:32:23.131Z,137.00
2019-03-19T21:34:53.517Z,134.07
2019-03-19T21:37:23.632Z,127.90
2019-03-19T21:39:53.751Z,148.20
2019-03-19T21:42:24.138Z,147.97
2019-03-19T21:44:54.502Z,131.97
2019-03-19T21:47:25.657Z,117.93
2019-03-19T21:49:55.888Z,113.43
2019-03-19T21:52:26.085Z,116.13
2019-03-19T21:54:56.517Z,119.63
2019-03-19T21:57:27.462Z,102.90
2019-03-19T21:59:57.896Z,127.43
2019-03-19T22:02:27.908Z,127.83
2019-03-19T22:04:58.135Z,121.53
2019-03-19T22:07:28.139Z,141.87
2019-03-19T22:09:58.558Z,134.33
2019-03-19T22:12:28.489Z,130.53
2019-03-19T22:14:58.922Z,114.30
2019-03-19T22:17:28.918Z,109.87
2019-03-19T22:19:59.140Z,98.23
2019-03-19T22:22:29.368Z,108.73
2019-03-19T22:24:59.583Z,89.10
2019-03-19T22:27:29.802Z,99.77
2019-03-19T22:30:00.396Z,95.83
2019-03-19T22:32:30.656Z,103.43
2019-03-19T22:35:00.564Z,105.93
2019-03-19T22:37:30.809Z,107.03
2019-03-19T22:40:01.127Z,100.60
2019-03-19T22:42:31.644Z,93.93
2019-03-19T22:45:04.317Z,105.67
2019-03-19T22:47:37.648Z,110.37
2019-03-19T22:50:07.760Z,107.67
2019-03-19T22:52:37.878Z,113.67
2019-03-19T22:55:08.067Z,116.43
2019-03-19T22:57:38.132Z,121.77
2019-03-19T23:00:09.855Z,114.63
2019-03-19T23:02:40.384Z,105.00
2019-03-19T23:05:10.698Z,115.73
2019-03-19T23:07:40.506Z,117.50
2019-03-19T23:10:10.726Z,94.43
2019-03-19T23:12:41.377Z,108.10
2019-03-19T23:15:11.909Z,111.73
2019-03-19T23:17:41.909Z,109.53
2019-03-19T23:20:12.557Z,141.70
2019-03-19T23:22:42.966Z,139.40
2019-03-19T23:25:14.125Z,129.00
2019-03-19T23:27:44.527Z,120.37
2019-03-19T23:30:14.559Z,116.27
2019-03-19T23:32:44.463Z,103.03
2019-03-19T23:35:14.380Z,116.87
2019-03-19T23:37:44.811Z,112.83
2019-03-19T23:40:14.826Z,110.13
2019-03-19T23:42:45.251Z,109.80
2019-03-19T23:45:15.259Z,113.20
2019-03-19T23:47:45.397Z,118.97
2019-03-19T23:50:15.805Z,104.73
2019-03-19T23:52:46.145Z,100.63
2019-03-19T23:55:17.393Z,99.33
2019-03-19T23:57:51.924Z,102.07
